eni.it alexa rank chart, eni.it alexa rank daily changes

eni.it alexa rank chart, eni.it alexa rank daily changes

eni.it
Actual rank:
107 818

RANK HISTORY

Date Rank Diff
2017/10/21 107 818 +3 141
2017/10/20 104 677 +5 702
2017/10/19 98 975 -2 610
2017/10/18 101 585 -2 483
2017/10/17 104 068 +1 508
2017/10/16 102 560 +5 294
2017/10/14 97 266 +2 280
2017/10/13 94 986 +2 028
2017/10/12 92 958 -1 630
2017/10/11 94 588 -2 836
2017/10/10 97 424 +2 818
2017/10/09 94 606 +2 216
2017/10/08 92 390 +2 710
2017/10/07 89 680 +610
2017/10/06 89 070 +265
2017/10/05 88 805 -564
2017/10/04 89 369 -909
2017/10/03 90 278 +1 943
2017/10/02 88 335 +3 417
2017/10/01 84 918 +1 097
2017/09/30 83 821 -22
2017/09/29 83 843 -1 988
2017/09/28 85 831 -1 842
2017/09/27 87 673 -962
2017/09/26 88 635 +2 479
2017/09/25 86 156 +485
2017/09/24 85 671 -536
2017/09/23 86 207 -3 535
2017/09/22 89 742 -3 095
2017/09/20 92 837 -3 257
2017/09/19 96 094 +4 202
2017/09/18 91 892 +3 232
2017/09/17 88 660 -1 501
2017/09/16 90 161 -1 348
2017/09/15 91 509 -3 446
2017/09/14 94 955 -3 295
2017/09/13 98 250 -811
2017/09/12 99 061 +4 628
2017/09/11 94 433 +2 834
2017/09/10 91 599 -717
2017/09/09 92 316 -560
2017/09/08 92 876 -4 397
2017/09/07 97 273 -2 523
2017/09/06 99 796 -1 939
2017/09/05 101 735 +2 696
2017/09/04 99 039 +4 879
2017/09/03 94 160 +250
2017/09/02 93 910 -873
2017/09/01 94 783 -2 149
2017/08/31 96 932 -1 227
2017/08/30 98 159 -919
2017/08/29 99 078 +1 955
2017/08/28 97 123 +428
2017/08/27 96 695 -303
2017/08/26 96 998 -1 808
2017/08/25 98 806 -791
2017/08/24 99 597 -2 248
2017/08/23 101 845 +2 784
2017/08/22 99 061

WIDGET FOR YOUR SITE

DOMAINS WITH THE NEAREST RANK

Domain Rank
pishu-pravilno.livejournal.com 107 813
dedicatefind.com 107 814
footlocker.com.au 107 815
kuldnebors.ee 107 816
isstardewvalleyoutonnintendoswitchyet.com 107 817
eni.it 107 818
research.ac.ir 107 819
evonik.com 107 820
vindy.com 107 821
agrofoto.pl 107 822
npg.org.uk 107 823

DOMAINS WITH THE NEAREST RANK BY TLD .it

Domain Rank
coopalleanza3-0.it 107 306
lansystems.it 107 487
paginemediche.it 107 492
ollo.it 107 565
biancolavoro.it 107 577
eni.it 107 818
firenzeviola.it 107 907
getrix.it 107 971
tempi.it 108 000
latin.it 108 013
desiderimagazine.it 108 054